sensor_id;sensor_type;location;lat;lon;timestamp;pressure;altitude;pressure_sealevel;temperature;humidity
23016;BME280;11674;52.428;13.584;2023-02-13T00:01:23;103428.56;;;10.02;80.24
23016;BME280;11674;52.428;13.584;2023-02-13T00:06:30;103440.09;;;10.06;80.16
23016;BME280;11674;52.428;13.584;2023-02-13T00:11:37;103433.72;;;10.05;80.34
23016;BME280;11674;52.428;13.584;2023-02-13T00:16:44;103433.47;;;10.07;80.32
23016;BME280;11674;52.428;13.584;2023-02-13T00:21:51;103431.97;;;10.11;80.12
23016;BME280;11674;52.428;13.584;2023-02-13T00:26:58;103433.88;;;10.10;80.25
23016;BME280;11674;52.428;13.584;2023-02-13T00:32:05;103433.88;;;10.10;80.14
23016;BME280;11674;52.428;13.584;2023-02-13T00:37:12;103444.56;;;10.07;80.25
23016;BME280;11674;52.428;13.584;2023-02-13T00:42:19;103436.72;;;10.04;80.35
23016;BME280;11674;52.428;13.584;2023-02-13T00:47:26;103443.09;;;10.04;80.52
23016;BME280;11674;52.428;13.584;2023-02-13T00:52:33;103439.28;;;10.05;80.42
23016;BME280;11674;52.428;13.584;2023-02-13T00:57:40;103436.03;;;10.08;80.38
23016;BME280;11674;52.428;13.584;2023-02-13T01:02:47;103437.53;;;10.11;80.44
23016;BME280;11674;52.428;13.584;2023-02-13T01:07:55;103431.28;;;10.15;80.30
23016;BME280;11674;52.428;13.584;2023-02-13T01:13:02;103440.47;;;10.16;80.28
23016;BME280;11674;52.428;13.584;2023-02-13T01:18:12;103443.47;;;10.14;80.46
23016;BME280;11674;52.428;13.584;2023-02-13T01:23:20;103440.97;;;10.06;80.17
23016;BME280;11674;52.428;13.584;2023-02-13T01:28:27;103440.75;;;10.01;80.43
23016;BME280;11674;52.428;13.584;2023-02-13T01:33:34;103437.56;;;9.98;80.23
23016;BME280;11674;52.428;13.584;2023-02-13T01:38:41;103435.84;;;9.97;80.19
23016;BME280;11674;52.428;13.584;2023-02-13T01:43:57;103426.91;;;9.95;80.41
23016;BME280;11674;52.428;13.584;2023-02-13T01:54:20;103425.81;;;9.96;80.15
23016;BME280;11674;52.428;13.584;2023-02-13T01:59:32;103429.69;;;9.95;80.17
23016;BME280;11674;52.428;13.584;2023-02-13T02:04:41;103434.34;;;9.94;80.21
23016;BME280;11674;52.428;13.584;2023-02-13T02:09:55;103427.53;;;9.97;80.26
23016;BME280;11674;52.428;13.584;2023-02-13T02:15:04;103432.63;;;10.00;80.21
23016;BME280;11674;52.428;13.584;2023-02-13T02:25:55;103433.72;;;9.99;80.08
23016;BME280;11674;52.428;13.584;2023-02-13T02:47:59;103446.53;;;9.93;79.87
23016;BME280;11674;52.428;13.584;2023-02-13T02:53:52;103444.22;;;9.90;79.75
23016;BME280;11674;52.428;13.584;2023-02-13T02:58:49;103439.50;;;9.91;79.53
23016;BME280;11674;52.428;13.584;2023-02-13T03:04:00;103446.34;;;9.88;79.87
23016;BME280;11674;52.428;13.584;2023-02-13T03:09:12;103441.88;;;9.87;79.59
23016;BME280;11674;52.428;13.584;2023-02-13T03:14:21;103439.31;;;9.86;79.65
23016;BME280;11674;52.428;13.584;2023-02-13T03:19:42;103437.81;;;9.83;79.56
23016;BME280;11674;52.428;13.584;2023-02-13T03:25:14;103446.59;;;9.80;79.47
23016;BME280;11674;52.428;13.584;2023-02-13T03:46:45;103449.19;;;9.62;79.12
23016;BME280;11674;52.428;13.584;2023-02-13T03:51:59;103439.44;;;9.60;79.23
23016;BME280;11674;52.428;13.584;2023-02-13T03:57:11;103438.56;;;9.59;79.49
23016;BME280;11674;52.428;13.584;2023-02-13T04:02:24;103446.66;;;9.61;79.24
23016;BME280;11674;52.428;13.584;2023-02-13T04:07:34;103448.16;;;9.57;79.08
23016;BME280;11674;52.428;13.584;2023-02-13T04:13:02;103433.44;;;9.56;79.17
23016;BME280;11674;52.428;13.584;2023-02-13T04:18:17;103434.53;;;9.55;79.17
23016;BME280;11674;52.428;13.584;2023-02-13T04:23:24;103427.91;;;9.56;79.14
23016;BME280;11674;52.428;13.584;2023-02-13T04:28:31;103425.38;;;9.55;79.36
23016;BME280;11674;52.428;13.584;2023-02-13T04:33:38;103430.28;;;9.53;78.98
23016;BME280;11674;52.428;13.584;2023-02-13T04:38:45;103430.47;;;9.51;79.07
23016;BME280;11674;52.428;13.584;2023-02-13T04:43:52;103423.44;;;9.49;78.95
23016;BME280;11674;52.428;13.584;2023-02-13T04:48:59;103419.66;;;9.43;79.11
23016;BME280;11674;52.428;13.584;2023-02-13T04:54:06;103421.34;;;9.44;78.95
23016;BME280;11674;52.428;13.584;2023-02-13T04:59:13;103412.84;;;9.39;79.00
23016;BME280;11674;52.428;13.584;2023-02-13T05:04:20;103417.09;;;9.35;79.11
23016;BME280;11674;52.428;13.584;2023-02-13T05:09:34;103416.25;;;9.35;78.83
23016;BME280;11674;52.428;13.584;2023-02-13T05:14:41;103418.63;;;9.31;78.89
23016;BME280;11674;52.428;13.584;2023-02-13T05:19:48;103424.59;;;9.28;78.89
23016;BME280;11674;52.428;13.584;2023-02-13T05:25:02;103425.66;;;9.34;78.80
23016;BME280;11674;52.428;13.584;2023-02-13T05:30:10;103428.41;;;9.34;78.77
23016;BME280;11674;52.428;13.584;2023-02-13T05:35:18;103434.59;;;9.36;79.04
23016;BME280;11674;52.428;13.584;2023-02-13T05:40:24;103434.38;;;9.37;79.10
23016;BME280;11674;52.428;13.584;2023-02-13T05:45:31;103435.44;;;9.36;78.72
23016;BME280;11674;52.428;13.584;2023-02-13T05:50:38;103441.81;;;9.37;78.74
23016;BME280;11674;52.428;13.584;2023-02-13T05:55:45;103440.53;;;9.39;78.81
23016;BME280;11674;52.428;13.584;2023-02-13T06:00:55;103451.00;;;9.44;78.56
23016;BME280;11674;52.428;13.584;2023-02-13T06:06:02;103454.38;;;9.46;78.63
23016;BME280;11674;52.428;13.584;2023-02-13T06:11:09;103449.47;;;9.48;78.54
23016;BME280;11674;52.428;13.584;2023-02-13T06:16:16;103458.63;;;9.48;78.38
23016;BME280;11674;52.428;13.584;2023-02-13T06:21:23;103456.69;;;9.49;78.50
23016;BME280;11674;52.428;13.584;2023-02-13T06:26:30;103459.94;;;9.46;78.55
23016;BME280;11674;52.428;13.584;2023-02-13T06:31:37;103470.56;;;9.49;78.41
23016;BME280;11674;52.428;13.584;2023-02-13T06:36:44;103458.66;;;9.42;78.52
23016;BME280;11674;52.428;13.584;2023-02-13T06:41:51;103472.72;;;9.40;78.47
23016;BME280;11674;52.428;13.584;2023-02-13T06:46:58;103473.16;;;9.37;78.38
23016;BME280;11674;52.428;13.584;2023-02-13T06:52:05;103476.13;;;9.36;78.47
23016;BME280;11674;52.428;13.584;2023-02-13T06:57:13;103481.25;;;9.39;78.37
23016;BME280;11674;52.428;13.584;2023-02-13T07:02:20;103487.88;;;9.31;78.34
23016;BME280;11674;52.428;13.584;2023-02-13T07:07:31;103485.72;;;9.27;78.42
23016;BME280;11674;52.428;13.584;2023-02-13T07:12:39;103489.56;;;9.26;78.26
23016;BME280;11674;52.428;13.584;2023-02-13T07:17:45;103490.03;;;9.23;78.29
23016;BME280;11674;52.428;13.584;2023-02-13T07:22:56;103491.50;;;9.25;78.31
23016;BME280;11674;52.428;13.584;2023-02-13T07:28:04;103485.53;;;9.22;78.12
23016;BME280;11674;52.428;13.584;2023-02-13T07:33:11;103496.84;;;9.20;78.17
23016;BME280;11674;52.428;13.584;2023-02-13T07:38:18;103503.88;;;9.23;77.95
23016;BME280;11674;52.428;13.584;2023-02-13T07:43:25;103495.97;;;9.20;78.13
23016;BME280;11674;52.428;13.584;2023-02-13T07:48:32;103505.78;;;9.22;77.93
23016;BME280;11674;52.428;13.584;2023-02-13T07:53:39;103508.34;;;9.24;77.97
23016;BME280;11674;52.428;13.584;2023-02-13T07:58:46;103504.69;;;9.30;78.05
23016;BME280;11674;52.428;13.584;2023-02-13T08:03:53;103511.06;;;9.30;77.93
23016;BME280;11674;52.428;13.584;2023-02-13T08:09:00;103515.13;;;9.34;77.73
23016;BME280;11674;52.428;13.584;2023-02-13T08:14:07;103516.63;;;9.37;77.91
23016;BME280;11674;52.428;13.584;2023-02-13T08:19:14;103521.09;;;9.38;77.94
23016;BME280;11674;52.428;13.584;2023-02-13T08:24:21;103515.75;;;9.43;77.75
23016;BME280;11674;52.428;13.584;2023-02-13T08:29:28;103506.59;;;9.42;77.89
23016;BME280;11674;52.428;13.584;2023-02-13T08:34:35;103505.75;;;9.42;77.73
23016;BME280;11674;52.428;13.584;2023-02-13T08:39:43;103515.97;;;9.48;77.73
23016;BME280;11674;52.428;13.584;2023-02-13T08:44:49;103505.53;;;9.50;77.67
23016;BME280;11674;52.428;13.584;2023-02-13T08:49:56;103496.97;;;9.58;77.96
23016;BME280;11674;52.428;13.584;2023-02-13T08:55:03;103499.69;;;9.77;77.90
23016;BME280;11674;52.428;13.584;2023-02-13T09:00:11;103504.16;;;9.78;77.60
23016;BME280;11674;52.428;13.584;2023-02-13T09:05:17;103508.22;;;9.82;77.79
23016;BME280;11674;52.428;13.584;2023-02-13T09:10:24;103514.63;;;9.83;77.90
23016;BME280;11674;52.428;13.584;2023-02-13T09:15:32;103509.69;;;9.85;77.97
23016;BME280;11674;52.428;13.584;2023-02-13T09:20:38;103515.44;;;9.90;77.71
23016;BME280;11674;52.428;13.584;2023-02-13T09:25:45;103513.13;;;9.87;77.72
23016;BME280;11674;52.428;13.584;2023-02-13T09:30:52;103519.09;;;9.84;77.65
23016;BME280;11674;52.428;13.584;2023-02-13T09:36:07;103527.59;;;9.89;77.78
23016;BME280;11674;52.428;13.584;2023-02-13T09:41:22;103527.19;;;9.92;77.82
23016;BME280;11674;52.428;13.584;2023-02-13T09:46:32;103519.91;;;9.97;77.78
23016;BME280;11674;52.428;13.584;2023-02-13T09:51:41;103520.97;;;10.03;77.68
23016;BME280;11674;52.428;13.584;2023-02-13T09:57:11;103506.66;;;9.99;77.91
23016;BME280;11674;52.428;13.584;2023-02-13T10:18:29;103518.59;;;10.00;77.65
23016;BME280;11674;52.428;13.584;2023-02-13T10:23:45;103515.44;;;9.90;77.04
23016;BME280;11674;52.428;13.584;2023-02-13T10:28:59;103507.59;;;9.80;76.95
23016;BME280;11674;52.428;13.584;2023-02-13T10:34:14;103512.53;;;9.72;76.99
23016;BME280;11674;52.428;13.584;2023-02-13T11:00:15;103494.50;;;10.00;77.16
23016;BME280;11674;52.428;13.584;2023-02-13T11:05:28;103489.59;;;9.96;77.19
23016;BME280;11674;52.428;13.584;2023-02-13T11:10:35;103478.72;;;9.94;77.17
23016;BME280;11674;52.428;13.584;2023-02-13T11:21:15;103483.84;;;10.04;77.40
23016;BME280;11674;52.428;13.584;2023-02-13T11:26:31;103482.13;;;10.03;77.34
23016;BME280;11674;52.428;13.584;2023-02-13T11:31:39;103476.59;;;9.96;77.32
23016;BME280;11674;52.428;13.584;2023-02-13T11:36:51;103450.78;;;9.96;77.41
23016;BME280;11674;52.428;13.584;2023-02-13T11:41:58;103474.22;;;10.00;77.58
23016;BME280;11674;52.428;13.584;2023-02-13T11:47:05;103462.28;;;10.06;77.35
23016;BME280;11674;52.428;13.584;2023-02-13T11:52:27;103462.66;;;10.16;77.83
23016;BME280;11674;52.428;13.584;2023-02-13T11:57:36;103453.81;;;10.32;77.90
23016;BME280;11674;52.428;13.584;2023-02-13T12:02:46;103456.09;;;10.41;77.73
23016;BME280;11674;52.428;13.584;2023-02-13T12:08:00;103452.50;;;10.41;77.58
23016;BME280;11674;52.428;13.584;2023-02-13T12:13:26;103451.41;;;10.42;77.59
23016;BME280;11674;52.428;13.584;2023-02-13T12:18:40;103449.34;;;10.37;77.53
23016;BME280;11674;52.428;13.584;2023-02-13T12:24:01;103462.34;;;10.37;77.43
23016;BME280;11674;52.428;13.584;2023-02-13T12:45:55;103458.59;;;10.56;77.36
23016;BME280;11674;52.428;13.584;2023-02-13T13:02:36;103440.97;;;10.68;76.34
23016;BME280;11674;52.428;13.584;2023-02-13T13:08:23;103441.22;;;10.67;75.95
23016;BME280;11674;52.428;13.584;2023-02-13T13:29:42;103441.88;;;10.62;75.84
23016;BME280;11674;52.428;13.584;2023-02-13T13:34:51;103447.00;;;10.65;75.89
23016;BME280;11674;52.428;13.584;2023-02-13T13:50:35;103441.44;;;10.65;75.49
23016;BME280;11674;52.428;13.584;2023-02-13T14:01:32;103431.28;;;10.53;75.06
23016;BME280;11674;52.428;13.584;2023-02-13T14:11:56;103417.44;;;10.46;74.67
23016;BME280;11674;52.428;13.584;2023-02-13T14:17:03;103417.66;;;10.45;74.82
23016;BME280;11674;52.428;13.584;2023-02-13T14:27:31;103398.31;;;10.38;74.55
23016;BME280;11674;52.428;13.584;2023-02-13T14:32:38;103393.88;;;10.31;74.46
23016;BME280;11674;52.428;13.584;2023-02-13T14:37:53;103401.78;;;10.27;74.31
23016;BME280;11674;52.428;13.584;2023-02-13T14:48:23;103391.81;;;10.20;74.12
23016;BME280;11674;52.428;13.584;2023-02-13T14:53:51;103389.88;;;10.20;74.32
23016;BME280;11674;52.428;13.584;2023-02-13T14:59:11;103383.03;;;10.23;74.16
23016;BME280;11674;52.428;13.584;2023-02-13T15:09:38;103381.38;;;10.15;74.02
23016;BME280;11674;52.428;13.584;2023-02-13T15:14:45;103376.69;;;10.16;74.31
23016;BME280;11674;52.428;13.584;2023-02-13T15:19:54;103361.72;;;10.17;74.15
23016;BME280;11674;52.428;13.584;2023-02-13T15:25:03;103360.72;;;10.11;73.91
23016;BME280;11674;52.428;13.584;2023-02-13T15:30:36;103365.00;;;10.07;73.86
23016;BME280;11674;52.428;13.584;2023-02-13T15:35:43;103356.47;;;10.09;73.91
23016;BME280;11674;52.428;13.584;2023-02-13T15:40:51;103352.84;;;10.02;73.61
23016;BME280;11674;52.428;13.584;2023-02-13T15:51:30;103358.19;;;9.97;73.38
23016;BME280;11674;52.428;13.584;2023-02-13T15:56:37;103351.59;;;9.98;73.36
23016;BME280;11674;52.428;13.584;2023-02-13T16:01:45;103363.31;;;10.00;73.57
23016;BME280;11674;52.428;13.584;2023-02-13T16:06:59;103368.66;;;10.01;73.51
23016;BME280;11674;52.428;13.584;2023-02-13T16:12:23;103358.84;;;9.99;73.40
23016;BME280;11674;52.428;13.584;2023-02-13T16:17:33;103363.31;;;10.00;73.60
23016;BME280;11674;52.428;13.584;2023-02-13T16:22:45;103355.44;;;9.97;73.55
23016;BME280;11674;52.428;13.584;2023-02-13T16:27:59;103363.59;;;9.92;73.35
23016;BME280;11674;52.428;13.584;2023-02-13T16:38:31;103363.81;;;9.90;73.55
23016;BME280;11674;52.428;13.584;2023-02-13T16:43:51;103364.63;;;9.91;73.44
23016;BME280;11674;52.428;13.584;2023-02-13T17:00:02;103388.97;;;9.89;73.41
23016;BME280;11674;52.428;13.584;2023-02-13T17:15:30;103387.69;;;9.91;73.63
23016;BME280;11674;52.428;13.584;2023-02-13T17:20:40;103394.09;;;9.92;73.44
23016;BME280;11674;52.428;13.584;2023-02-13T17:25:50;103395.97;;;9.98;73.64
23016;BME280;11674;52.428;13.584;2023-02-13T17:30:58;103389.34;;;9.99;73.55
23016;BME280;11674;52.428;13.584;2023-02-13T17:36:05;103394.25;;;9.97;73.59
23016;BME280;11674;52.428;13.584;2023-02-13T17:41:14;103387.69;;;9.91;73.62
23016;BME280;11674;52.428;13.584;2023-02-13T17:46:21;103383.84;;;9.86;73.53
23016;BME280;11674;52.428;13.584;2023-02-13T17:51:30;103388.56;;;9.85;73.68
23016;BME280;11674;52.428;13.584;2023-02-13T17:56:36;103385.16;;;9.83;73.56
23016;BME280;11674;52.428;13.584;2023-02-13T18:01:43;103389.22;;;9.81;73.43
23016;BME280;11674;52.428;13.584;2023-02-13T18:06:52;103389.66;;;9.78;73.62
23016;BME280;11674;52.428;13.584;2023-02-13T18:11:58;103406.72;;;9.75;73.69
23016;BME280;11674;52.428;13.584;2023-02-13T18:17:06;103397.78;;;9.73;73.51
23016;BME280;11674;52.428;13.584;2023-02-13T18:22:12;103395.69;;;9.68;73.36
23016;BME280;11674;52.428;13.584;2023-02-13T18:27:19;103392.47;;;9.65;73.32
23016;BME280;11674;52.428;13.584;2023-02-13T18:32:27;103389.09;;;9.63;73.38
23016;BME280;11674;52.428;13.584;2023-02-13T18:37:34;103387.81;;;9.65;73.31
23016;BME280;11674;52.428;13.584;2023-02-13T18:42:40;103395.72;;;9.62;73.20
23016;BME280;11674;52.428;13.584;2023-02-13T18:47:48;103400.84;;;9.58;73.24
23016;BME280;11674;52.428;13.584;2023-02-13T18:52:54;103396.59;;;9.56;73.10
23016;BME280;11674;52.428;13.584;2023-02-13T18:58:02;103392.34;;;9.53;73.12
23016;BME280;11674;52.428;13.584;2023-02-13T19:03:08;103385.53;;;9.49;72.86
23016;BME280;11674;52.428;13.584;2023-02-13T19:08:16;103386.19;;;9.45;72.86
23016;BME280;11674;52.428;13.584;2023-02-13T19:13:23;103389.59;;;9.40;72.76
23016;BME280;11674;52.428;13.584;2023-02-13T19:18:30;103383.66;;;9.37;72.66
23016;BME280;11674;52.428;13.584;2023-02-13T19:23:37;103381.94;;;9.36;72.32
23016;BME280;11674;52.428;13.584;2023-02-13T19:28:45;103390.69;;;9.33;72.34
23016;BME280;11674;52.428;13.584;2023-02-13T19:33:51;103398.16;;;9.32;72.11
23016;BME280;11674;52.428;13.584;2023-02-13T19:39:01;103399.44;;;9.30;71.95
23016;BME280;11674;52.428;13.584;2023-02-13T19:44:09;103405.81;;;9.30;72.14
23016;BME280;11674;52.428;13.584;2023-02-13T19:49:16;103408.19;;;9.27;71.97
23016;BME280;11674;52.428;13.584;2023-02-13T19:54:24;103403.28;;;9.22;71.73
23016;BME280;11674;52.428;13.584;2023-02-13T19:59:30;103414.16;;;9.17;71.74
23016;BME280;11674;52.428;13.584;2023-02-13T20:04:38;103406.06;;;9.16;71.61
23016;BME280;11674;52.428;13.584;2023-02-13T20:09:45;103413.75;;;9.14;71.38
23016;BME280;11674;52.428;13.584;2023-02-13T20:14:55;103425.47;;;9.16;71.29
23016;BME280;11674;52.428;13.584;2023-02-13T20:20:02;103423.34;;;9.18;71.38
23016;BME280;11674;52.428;13.584;2023-02-13T20:25:09;103424.63;;;9.15;71.24
23016;BME280;11674;52.428;13.584;2023-02-13T20:30:16;103422.91;;;9.14;71.22
23016;BME280;11674;52.428;13.584;2023-02-13T20:35:23;103427.19;;;9.10;71.21
23016;BME280;11674;52.428;13.584;2023-02-13T20:40:30;103437.41;;;9.10;71.21
23016;BME280;11674;52.428;13.584;2023-02-13T20:45:36;103436.56;;;9.09;71.10
23016;BME280;11674;52.428;13.584;2023-02-13T20:50:43;103450.16;;;9.11;71.02
23016;BME280;11674;52.428;13.584;2023-02-13T20:55:51;103453.38;;;9.08;70.96
23016;BME280;11674;52.428;13.584;2023-02-13T21:00:59;103454.88;;;9.04;71.03
23016;BME280;11674;52.428;13.584;2023-02-13T21:06:07;103463.84;;;8.99;71.00
23016;BME280;11674;52.428;13.584;2023-02-13T21:11:14;103468.28;;;8.94;70.74
23016;BME280;11674;52.428;13.584;2023-02-13T21:16:24;103464.44;;;8.95;70.91
23016;BME280;11674;52.428;13.584;2023-02-13T21:21:32;103471.50;;;8.91;70.89
23016;BME280;11674;52.428;13.584;2023-02-13T21:26:40;103471.03;;;8.87;70.96
23016;BME280;11674;52.428;13.584;2023-02-13T21:31:47;103479.78;;;8.84;71.00
23016;BME280;11674;52.428;13.584;2023-02-13T21:36:54;103477.44;;;8.81;71.03
23016;BME280;11674;52.428;13.584;2023-02-13T21:42:01;103479.56;;;8.79;71.08
23016;BME280;11674;52.428;13.584;2023-02-13T21:47:08;103475.72;;;8.74;70.81
23016;BME280;11674;52.428;13.584;2023-02-13T21:52:15;103479.75;;;8.71;70.69
23016;BME280;11674;52.428;13.584;2023-02-13T21:57:22;103480.84;;;8.70;70.78
23016;BME280;11674;52.428;13.584;2023-02-13T22:02:29;103473.19;;;8.72;70.83
23016;BME280;11674;52.428;13.584;2023-02-13T22:07:36;103466.78;;;8.72;70.75
23016;BME280;11674;52.428;13.584;2023-02-13T22:12:43;103478.94;;;8.71;70.97
23016;BME280;11674;52.428;13.584;2023-02-13T22:17:50;103487.41;;;8.63;70.81
23016;BME280;11674;52.428;13.584;2023-02-13T22:22:57;103492.97;;;8.63;70.78
23016;BME280;11674;52.428;13.584;2023-02-13T22:28:04;103492.53;;;8.59;70.89
23016;BME280;11674;52.428;13.584;2023-02-13T22:33:11;103492.72;;;8.58;70.81
23016;BME280;11674;52.428;13.584;2023-02-13T22:38:18;103499.34;;;8.57;70.87
23016;BME280;11674;52.428;13.584;2023-02-13T22:43:25;103501.66;;;8.53;70.79
23016;BME280;11674;52.428;13.584;2023-02-13T22:48:34;103505.91;;;8.49;70.69
23016;BME280;11674;52.428;13.584;2023-02-13T22:53:41;103507.59;;;8.50;70.78
23016;BME280;11674;52.428;13.584;2023-02-13T22:58:48;103496.13;;;8.47;70.84
23016;BME280;11674;52.428;13.584;2023-02-13T23:03:55;103492.31;;;8.48;70.74
23016;BME280;11674;52.428;13.584;2023-02-13T23:09:03;103491.25;;;8.49;70.87
23016;BME280;11674;52.428;13.584;2023-02-13T23:14:10;103491.00;;;8.50;70.79
23016;BME280;11674;52.428;13.584;2023-02-13T23:19:19;103489.09;;;8.51;70.89
23016;BME280;11674;52.428;13.584;2023-02-13T23:24:27;103495.91;;;8.48;70.83
23016;BME280;11674;52.428;13.584;2023-02-13T23:29:34;103504.63;;;8.52;70.94
23016;BME280;11674;52.428;13.584;2023-02-13T23:34:41;103501.28;;;8.56;70.89
23016;BME280;11674;52.428;13.584;2023-02-13T23:39:48;103500.22;;;8.64;70.96
23016;BME280;11674;52.428;13.584;2023-02-13T23:44:55;103504.03;;;8.69;70.90
23016;BME280;11674;52.428;13.584;2023-02-13T23:50:03;103501.69;;;8.73;70.90
23016;BME280;11674;52.428;13.584;2023-02-13T23:55:10;103501.28;;;8.76;71.05
